M I D A S
Marine Information and Data Acquisition System
Tripno 1034 of the Zeeleeuw from 2006-02-22 07:44:26 to 2006-02-22 12:53:22
Back to CruiseResearch ActivitiesStationsMapUnderway DataData graphs

EquipmentUnitsComment
TimeDGPSUTC
LatitudeDGPSDM.mWGS84
LongitudeDGPSDM.mWGS84
TemperatureSBE03/SBE38deg celciusITS90
ConductivitySBE21S/mITS90
SalinitySBE21 Practical Salinity Units
ChlorophylAChelsea fluorimeterg/lCalibrated in Aceton
Missing or incorrect values are displayed as -999
Sea surface data collected by the RV Zeeleeuw from 2006-02-22 07:27:39 to 2006-02-22 13:15:29
Time Latitude Longitude Temperature Conductivity Salinity ChlorophylA
2006-02-22 07:28:46 51°13.615 2°56.034 -999 2.688473 21.402428 -1.421728
2006-02-22 07:29:45 51°13.649 2°55.929 -999 2.688266 21.402022 -1.421728
2006-02-22 07:30:46 51°13.695 2°55.805 -999 2.582854 20.63274 -0.343027
2006-02-22 07:31:44 51°13.719 2°55.713 -999 2.286125 22.858982 0.432289
2006-02-22 07:32:44 51°13.719 2°55.714 -999 2.227471 22.491062 0.331161
2006-02-22 07:33:44 51°13.729 2°55.704 -999 2.262169 22.945599 0.533418
2006-02-22 07:34:45 51°13.798 2°55.655 -999 2.180077 22.063405 0.735674
2006-02-22 07:35:46 51°13.909 2°55.572 -999 2.208266 22.399837 0.533418
2006-02-22 07:36:45 51°14.03 2°55.483 -999 2.37826 24.339424 0.297452
2006-02-22 07:37:45 51°14.15 2°55.399 -999 2.371443 24.280091 -0.073352
2006-02-22 07:38:44 51°14.261 2°55.26 -999 2.329508 23.831805 0.095195
2006-02-22 07:39:44 51°14.355 2°55.056 -999 2.477434 25.519184 -0.410446
2006-02-22 07:40:44 51°14.409 2°54.79 -999 2.553171 26.411182 -0.511574
2006-02-22 07:41:44 51°14.454 2°54.496 -999 2.747167 28.707665 -0.814958
2006-02-22 07:42:44 51°14.407 2°54.209 -999 2.882711 30.32386 -0.916087
2006-02-22 07:43:44 51°14.31 2°53.937 -999 2.834424 29.765933 -0.916087
2006-02-22 07:44:45 51°14.205 2°53.656 -999 2.890673 30.426206 -0.916087
2006-02-22 07:45:45 51°14.103 2°53.372 -999 2.890467 30.433739 -0.916087
2006-02-22 07:46:44 51°14.005 2°53.092 -999 2.887985 30.413037 -0.916087
2006-02-22 07:47:44 51°13.902 2°52.806 -999 2.885193 30.385113 -0.916087
2006-02-22 07:48:44 51°13.797 2°52.523 -999 2.882505 30.363797 -0.916087
2006-02-22 07:49:44 51°13.695 2°52.232 -999 2.881057 30.350582 -0.916087
2006-02-22 07:50:44 51°13.59 2°51.948 -999 2.881471 30.358997 -0.916087
2006-02-22 07:51:44 51°13.487 2°51.67 -999 2.879609 30.342774 -0.916087
2006-02-22 07:52:44 51°13.38 2°51.392 -999 2.875577 30.2914 -0.916087
2006-02-22 07:53:44 51°13.277 2°51.109 -999 2.871958 30.252047 -0.882377
2006-02-22 07:54:44 51°13.173 2°50.823 -999 2.866994 30.197078 -0.882377
2006-02-22 07:55:44 51°13.068 2°50.538 -999 2.863169 30.155326 -0.882377
2006-02-22 07:56:44 51°12.963 2°50.254 -999 2.862238 30.148101 -0.916087
2006-02-22 07:57:44 51°12.858 2°49.972 -999 2.867718 30.21357 -0.916087
2006-02-22 07:58:44 51°12.751 2°49.688 -999 2.86596 30.194041 -0.916087
2006-02-22 07:59:44 51°12.642 2°49.406 -999 2.866064 30.19614 -0.882377
2006-02-22 08:00:44 51°12.539 2°49.113 -999 2.868545 30.226777 -0.882377
2006-02-22 08:01:44 51°12.434 2°48.829 -999 2.873405 30.288673 -0.882377
2006-02-22 08:02:44 51°12.327 2°48.546 -999 2.876197 30.319334 -0.916087
2006-02-22 08:03:44 51°12.223 2°48.259 -999 2.876818 30.323843 -0.882377
2006-02-22 08:04:44 51°12.117 2°47.973 -999 2.872165 30.267044 -0.882377
2006-02-22 08:05:44 51°12.01 2°47.691 -999 2.871337 30.267328 -0.882377
2006-02-22 08:06:44 51°11.906 2°47.408 -999 2.869063 30.235484 -0.848668
2006-02-22 08:07:44 51°11.8 2°47.124 -999 2.87113 30.251427 -0.848668
2006-02-22 08:08:44 51°11.698 2°46.83 -999 2.871751 30.252342 -0.814958
2006-02-22 08:09:45 51°11.629 2°46.508 -999 2.872061 30.257745 -0.814958
2006-02-22 08:10:44 51°11.572 2°46.189 -999 2.874233 30.291084 -0.814958
2006-02-22 08:11:44 51°11.514 2°45.864 -999 2.87506 30.298899 -0.814958
2006-02-22 08:12:44 51°11.456 2°45.539 -999 2.875887 30.307615 -0.848668
2006-02-22 08:13:45 51°11.397 2°45.206 -999 2.884676 30.405294 -0.848668
2006-02-22 08:14:44 51°11.334 2°44.89 -999 2.887779 30.445895 -0.882377
2006-02-22 08:15:44 51°11.275 2°44.562 -999 2.886331 30.426343 -0.848668
2006-02-22 08:16:44 51°11.217 2°44.234 -999 2.883849 30.401097 -0.882377
2006-02-22 08:17:44 51°11.165 2°43.902 -999 2.883953 30.401396 -0.848668
2006-02-22 08:18:45 51°11.111 2°43.564 -999 2.882815 30.388168 -0.848668
2006-02-22 08:19:44 51°11.059 2°43.239 -999 2.88478 30.410112 -0.882377
2006-02-22 08:20:44 51°11.011 2°42.903 -999 2.888089 30.447693 -0.882377
2006-02-22 08:21:45 51°10.961 2°42.565 -999 2.892432 30.496401 -0.882377
2006-02-22 08:22:44 51°10.91 2°42.238 -999 2.896982 30.540258 -0.882377
2006-02-22 08:23:44 51°10.86 2°41.906 -999 2.899153 30.54827 -0.882377
2006-02-22 08:24:44 51°10.81 2°41.576 -999 2.904323 30.592039 -0.882377
2006-02-22 08:25:45 51°10.758 2°41.241 -999 2.904323 30.584776 -0.882377
2006-02-22 08:26:44 51°10.718 2°40.911 -999 2.900187 30.541245 -0.882377
2006-02-22 08:27:44 51°10.667 2°40.579 -999 2.900394 30.540022 -0.882377
2006-02-22 08:28:44 51°10.609 2°40.241 -999 2.869682 30.200486 -0.848668
2006-02-22 08:29:44 51°10.551 2°39.908 -999 2.833287 29.788112 -0.848668
2006-02-22 08:30:44 51°10.496 2°39.569 -999 2.830805 29.759352 -0.814958
2006-02-22 08:31:44 51°10.442 2°39.229 -999 2.834424 29.797755 -0.781249
2006-02-22 08:32:45 51°10.381 2°38.889 -999 2.843833 29.89529 -0.814958
2006-02-22 08:33:44 51°10.323 2°38.555 -999 2.846004 29.913355 -0.814958
2006-02-22 08:34:45 51°10.257 2°38.218 -999 2.851484 29.962647 -0.814958
2006-02-22 08:35:44 51°10.193 2°37.893 -999 2.861307 30.072925 -0.781249
2006-02-22 08:36:45 51°10.128 2°37.554 -999 2.870613 30.170976 -0.781249
2006-02-22 08:37:44 51°10.066 2°37.22 -999 2.883435 30.301699 -0.781249
2006-02-22 08:38:45 51°10.017 2°36.876 -999 2.906184 30.543868 -0.814958
2006-02-22 08:39:44 51°9.997 2°36.534 -999 2.920351 30.69188 -0.814958
2006-02-22 08:40:45 51°9.993 2°36.177 -999 2.92759 30.76221 -0.814958
2006-02-22 08:41:45 51°10.074 2°35.864 -999 2.947963 30.964741 -0.882377
2006-02-22 08:42:45 51°10.258 2°35.767 -999 2.97299 31.208157 -0.916087
2006-02-22 08:43:44 51°10.433 2°35.913 -999 2.974749 31.235916 -0.848668
2006-02-22 08:44:45 51°10.613 2°36.084 -999 2.969578 31.190674 -0.848668
2006-02-22 08:45:44 51°10.787 2°36.249 -999 2.963786 31.138206 -0.814958
2006-02-22 08:46:44 51°10.958 2°36.425 -999 2.960373 31.112395 -0.814958
2006-02-22 08:47:44 51°11.126 2°36.61 -999 2.957684 31.097732 -0.814958
2006-02-22 08:48:45 51°11.299 2°36.801 -999 2.953341 31.052813 -0.781249
2006-02-22 08:49:45 51°11.467 2°36.986 -999 2.950549 31.031408 -0.781249
2006-02-22 08:50:44 51°11.632 2°37.163 -999 2.945791 30.992674 -0.74754
2006-02-22 08:51:44 51°11.802 2°37.344 -999 2.942999 30.977663 -0.781249
2006-02-22 08:52:45 51°11.975 2°37.529 -999 2.940828 30.966184 -0.74754
2006-02-22 08:53:44 51°12.143 2°37.708 -999 2.941862 30.980962 -0.781249
2006-02-22 08:54:45 51°12.315 2°37.892 -999 2.94331 31.002391 -0.781249
2006-02-22 08:55:44 51°12.482 2°38.069 -999 2.94755 31.049867 -0.781249
2006-02-22 08:56:44 51°12.652 2°38.247 -999 2.948481 31.062535 -0.814958
2006-02-22 08:57:45 51°12.821 2°38.425 -999 2.946619 31.050086 -0.814958
2006-02-22 08:58:44 51°12.986 2°38.598 -999 2.947136 31.058865 -0.814958
2006-02-22 08:59:44 51°13.153 2°38.773 -999 2.94724 31.057305 -0.781249
2006-02-22 09:00:45 51°13.338 2°38.89 -999 2.945378 31.037487 -0.781249
2006-02-22 09:01:44 51°13.531 2°38.979 -999 2.944551 31.030622 -0.814958
2006-02-22 09:02:44 51°13.74 2°38.957 -999 2.944448 31.0331 -0.814958
2006-02-22 09:03:44 51°13.944 2°38.912 -999 2.946102 31.051435 -0.848668
2006-02-22 09:04:44 51°14.126 2°38.775 -999 2.949515 31.095767 -0.814958
2006-02-22 09:05:45 51°14.211 2°38.453 -999 2.953755 31.150678 -0.814958
2006-02-22 09:06:44 51°14.207 2°38.117 -999 2.96296 31.265317 -0.814958
2006-02-22 09:07:45 51°14.13 2°37.779 -999 2.969889 31.343293 -0.814958
2006-02-22 09:08:44 51°14.051 2°37.452 -999 2.975371 31.417454 -0.814958
2006-02-22 09:09:44 51°13.968 2°37.126 -999 2.988712 31.517916 -0.814958
2006-02-22 09:10:44 51°13.885 2°36.797 -999 2.986851 31.506497 -0.781249
2006-02-22 09:11:44 51°13.794 2°36.478 -999 2.98261 31.46548 -0.781249
2006-02-22 09:12:45 51°13.698 2°36.154 -999 3.003089 31.650772 -0.848668
2006-02-22 09:13:45 51°13.602 2°35.829 -999 3.011984 31.724339 -0.916087
2006-02-22 09:14:45 51°13.507 2°35.508 -999 3.013432 31.727123 -0.916087
2006-02-22 09:15:45 51°13.411 2°35.186 -999 3.013949 31.730327 -0.916087
2006-02-22 09:16:45 51°13.316 2°34.863 -999 3.011777 31.701309 -0.916087
2006-02-22 09:17:45 51°13.222 2°34.54 -999 3.012708 31.70839 -0.916087
2006-02-22 09:18:44 51°13.133 2°34.225 -999 3.0155 31.722131 -0.916087
2006-02-22 09:19:45 51°13.043 2°33.893 -999 3.017776 31.745776 -0.949796
2006-02-22 09:20:45 51°12.951 2°33.573 -999 3.020051 31.762856 -0.949796
2006-02-22 09:21:44 51°12.857 2°33.26 -999 3.02243 31.774568 -0.949796
2006-02-22 09:22:44 51°12.767 2°32.945 -999 3.02212 31.770963 -0.949796
2006-02-22 09:23:44 51°12.671 2°32.631 -999 3.021396 31.763487 -0.916087
2006-02-22 09:24:44 51°12.578 2°32.311 -999 3.02243 31.772694 -0.916087
2006-02-22 09:25:45 51°12.48 2°31.988 -999 3.024395 31.791778 -0.916087
2006-02-22 09:26:45 51°12.387 2°31.665 -999 3.02936 31.83351 -0.916087
2006-02-22 09:27:44 51°12.293 2°31.35 -999 3.033808 31.88236 -0.916087
2006-02-22 09:28:44 51°12.2 2°31.023 -999 3.033704 31.876461 -0.916087
2006-02-22 09:29:44 51°12.103 2°30.696 -999 3.036807 31.908746 -0.882377
2006-02-22 09:30:44 51°12.011 2°30.37 -999 3.041669 31.952042 -0.882377
2006-02-22 09:31:44 51°11.921 2°30.042 -999 3.044048 31.969315 -0.882377
2006-02-22 09:32:44 51°11.832 2°29.717 -999 3.047979 32.009305 -0.882377
2006-02-22 09:33:45 51°11.737 2°29.38 -999 3.053357 32.062331 -0.882377
2006-02-22 09:34:44 51°11.644 2°29.058 -999 3.058736 32.117232 -0.848668
2006-02-22 09:35:44 51°11.55 2°28.727 -999 3.064736 32.174599 -0.882377
2006-02-22 09:36:44 51°11.466 2°28.395 -999 3.077149 32.296916 -0.848668
2006-02-22 09:37:45 51°11.386 2°28.043 -999 3.09008 32.418497 -0.848668
2006-02-22 09:38:45 51°11.318 2°27.697 -999 3.092356 32.432532 -0.848668
2006-02-22 09:39:45 51°11.274 2°27.337 -999 3.095046 32.458026 -0.882377
2006-02-22 09:40:45 51°11.238 2°26.977 -999 3.099598 32.499399 -0.848668
2006-02-22 09:41:44 51°11.197 2°26.627 -999 3.105494 32.552536 -0.882377
2006-02-22 09:42:45 51°11.152 2°26.266 -999 3.114081 32.628232 -0.848668
2006-02-22 09:43:44 51°11.113 2°25.916 -999 3.120805 32.69089 -0.814958
2006-02-22 09:44:44 51°11.096 2°25.56 -999 3.129392 32.770307 -0.814958
2006-02-22 09:45:45 51°11.201 2°25.248 -999 3.132703 32.793327 -0.814958
2006-02-22 09:46:44 51°11.387 2°25.13 -999 3.141911 32.8885 -0.814958
2006-02-22 09:47:44 51°11.575 2°25.203 -999 3.150912 32.971618 -0.814958
2006-02-22 09:48:44 51°11.718 2°25.409 -999 3.153809 33.000362 -0.814958
2006-02-22 09:49:45 51°11.86 2°25.62 -999 3.153809 33.005184 -0.814958
2006-02-22 09:50:45 51°12.008 2°25.814 -999 3.149567 32.966633 -0.848668
2006-02-22 09:51:44 51°12.159 2°26.001 -999 3.129599 32.78998 -0.882377
2006-02-22 09:52:44 51°12.317 2°26.191 -999 3.129496 32.793582 -0.848668
2006-02-22 09:53:45 51°12.476 2°26.383 -999 3.125254 32.7559 -0.882377
2006-02-22 09:54:45 51°12.629 2°26.567 -999 3.130634 32.806782 -0.814958
2006-02-22 09:55:45 51°12.778 2°26.76 -999 3.131668 32.814939 -0.814958
2006-02-22 09:56:44 51°12.925 2°26.945 -999 3.130944 32.808461 -0.814958
2006-02-22 09:57:45 51°13.076 2°27.138 -999 3.129392 32.795264 -0.848668
2006-02-22 09:58:44 51°13.212 2°27.314 -999 3.129289 32.795985 -0.814958
2006-02-22 09:59:45 51°13.363 2°27.51 -999 3.129496 32.793582 -0.814958
2006-02-22 10:00:44 51°13.51 2°27.7 -999 3.128979 32.789503 -0.814958
2006-02-22 10:01:45 51°13.66 2°27.896 -999 3.12753 32.777503 -0.848668
2006-02-22 10:02:45 51°13.803 2°28.084 -999 3.125461 32.76118 -0.882377
2006-02-22 10:03:45 51°13.945 2°28.275 -999 3.124013 32.751095 -0.882377
2006-02-22 10:04:45 51°14.094 2°28.468 -999 3.122875 32.741729 -0.882377
2006-02-22 10:05:44 51°14.239 2°28.66 -999 3.12184 32.736441 -0.882377
2006-02-22 10:06:45 51°14.39 2°28.857 -999 3.121633 32.732121 -0.882377
2006-02-22 10:07:45 51°14.536 2°29.048 -999 3.121323 32.732357 -0.848668
2006-02-22 10:08:45 51°14.682 2°29.233 -999 3.120288 32.727067 -0.848668
2006-02-22 10:09:45 51°14.83 2°29.424 -999 3.119254 32.720816 -0.848668
2006-02-22 10:10:45 51°14.975 2°29.616 -999 3.117909 32.71 -0.882377
2006-02-22 10:11:44 51°15.12 2°29.804 -999 3.116047 32.692217 -0.916087
2006-02-22 10:12:45 51°15.264 2°29.994 -999 3.114495 32.68283 -0.916087
2006-02-22 10:13:45 51°15.412 2°30.187 -999 3.113874 32.680417 -0.882377
2006-02-22 10:14:44 51°15.56 2°30.38 -999 3.110874 32.656119 -0.916087
2006-02-22 10:15:45 51°15.709 2°30.576 -999 3.10746 32.624127 -0.949796
2006-02-22 10:16:44 51°15.857 2°30.771 -999 3.105702 32.611359 -0.949796
2006-02-22 10:17:45 51°16.009 2°30.972 -999 3.104771 32.608205 -0.949796
2006-02-22 10:18:45 51°16.158 2°31.164 -999 3.102702 32.592781 -0.983506
2006-02-22 10:19:45 51°16.314 2°31.359 -999 3.098771 32.562406 -0.983506
2006-02-22 10:20:44 51°16.461 2°31.544 -999 3.076323 32.381543 -0.949796
2006-02-22 10:21:45 51°16.608 2°31.731 -999 3.064013 32.28014 -0.949796
2006-02-22 10:22:45 51°16.757 2°31.926 -999 3.078806 32.410451 -0.983506
2006-02-22 10:23:44 51°16.9 2°32.116 -999 3.093185 32.532864 -1.017215
2006-02-22 10:24:45 51°17.049 2°32.311 -999 3.093805 32.545836 -1.017215
2006-02-22 10:25:44 51°17.195 2°32.502 -999 3.093288 32.546525 -1.017215
2006-02-22 10:26:45 51°17.345 2°32.695 -999 3.092978 32.550583 -1.017215
2006-02-22 10:27:44 51°17.487 2°32.878 -999 3.093806 32.563097 -1.017215
2006-02-22 10:28:45 51°17.632 2°33.068 -999 3.094944 32.579228 -1.017215
2006-02-22 10:29:45 51°17.779 2°33.256 -999 3.09453 32.577289 -1.017215
2006-02-22 10:30:45 51°17.925 2°33.44 -999 3.09515 32.585479 -1.017215
2006-02-22 10:31:45 51°18.075 2°33.626 -999 3.094737 32.5845 -1.017215
2006-02-22 10:32:44 51°18.217 2°33.809 -999 3.095254 32.590526 -1.017215
2006-02-22 10:33:45 51°18.37 2°34.005 -999 3.095358 32.598457 -1.017215
2006-02-22 10:34:44 51°18.515 2°34.192 -999 3.095978 32.603767 -1.050924
2006-02-22 10:35:45 51°18.666 2°34.383 -999 3.094737 32.595068 -1.050924
2006-02-22 10:36:45 51°18.81 2°34.57 -999 3.092668 32.578644 -1.050924
2006-02-22 10:37:44 51°18.952 2°34.746 -999 3.090496 32.56293 -1.050924
2006-02-22 10:38:44 51°19.098 2°34.934 -999 3.089151 32.551095 -1.050924
2006-02-22 10:39:44 51°19.247 2°35.117 -999 3.087392 32.541157 -1.050924
2006-02-22 10:40:45 51°19.392 2°35.302 -999 3.086358 32.532935 -1.050924
2006-02-22 10:41:44 51°19.529 2°35.474 -999 3.085116 32.525181 -1.050924
2006-02-22 10:42:45 51°19.677 2°35.66 -999 3.083358 32.51043 -1.050924
2006-02-22 10:43:45 51°19.821 2°35.837 -999 3.083254 32.509224 -1.017215
2006-02-22 10:44:44 51°19.969 2°36.019 -999 3.085737 32.535302 -1.017215
2006-02-22 10:45:44 51°20.102 2°36.228 -999 3.087806 32.558474 -1.017215
2006-02-22 10:46:44 51°20.227 2°36.449 -999 3.089047 32.573918 -1.017215
2006-02-22 10:47:45 51°20.356 2°36.672 -999 3.086255 32.560565 -1.017215
2006-02-22 10:48:45 51°20.486 2°36.884 -999 3.081806 32.528837 -1.017215
2006-02-22 10:49:45 51°20.63 2°37.077 -999 3.080565 32.518188 -1.017215
2006-02-22 10:50:44 51°20.775 2°37.255 -999 3.080358 32.517696 -1.017215
2006-02-22 10:51:45 51°20.942 2°37.405 -999 3.080255 32.52322 -1.017215
2006-02-22 10:52:44 51°21.113 2°37.535 -999 3.08491 32.567965 -1.017215
2006-02-22 10:53:45 51°21.299 2°37.647 -999 3.080772 32.527337 -1.017215
2006-02-22 10:54:44 51°21.483 2°37.728 -999 3.083772 32.568158 -1.050924
2006-02-22 10:55:44 51°21.673 2°37.811 -999 3.086048 32.590892 -1.017215
2006-02-22 10:56:45 51°21.871 2°37.842 -999 3.089669 32.620654 -1.017215
2006-02-22 10:57:45 51°22.062 2°37.865 -999 3.093806 32.652581 -1.050924
2006-02-22 10:58:45 51°22.248 2°37.885 -999 3.095462 32.669979 -1.050924
2006-02-22 10:59:45 51°22.432 2°37.905 -999 3.094531 32.659107 -1.050924
2006-02-22 11:00:45 51°22.624 2°37.932 -999 3.097117 32.682548 -1.050924
2006-02-22 11:01:44 51°22.811 2°37.953 -999 3.097531 32.681586 -1.050924
2006-02-22 11:02:44 51°23.003 2°37.995 -999 3.094324 32.649937 -1.050924
2006-02-22 11:03:45 51°23.189 2°38.089 -999 3.098048 32.670255 -1.084634
2006-02-22 11:04:45 51°23.36 2°38.202 -999 3.105703 32.726747 -1.084634
2006-02-22 11:05:44 51°23.509 2°38.342 -999 3.104358 32.71589 -1.084634
2006-02-22 11:06:45 51°23.642 2°38.553 -999 3.1176 32.817128 -1.084634
2006-02-22 11:07:45 51°23.771 2°38.781 -999 3.12029 32.835898 -1.084634
2006-02-22 11:08:45 51°23.899 2°39.012 -999 3.110565 32.758335 -1.084634
2006-02-22 11:09:45 51°24.026 2°39.248 -999 3.107979 32.740736 -1.084634
2006-02-22 11:10:45 51°24.142 2°39.478 -999 3.107461 32.733742 -1.084634
2006-02-22 11:11:45 51°24.261 2°39.709 -999 3.105082 32.716615 -1.084634
2006-02-22 11:12:45 51°24.373 2°39.949 -999 3.101461 32.687897 -1.084634
2006-02-22 11:13:45 51°24.486 2°40.2 -999 3.095772 32.644664 -1.084634
2006-02-22 11:14:45 51°24.596 2°40.448 -999 3.095461 32.642971 -1.084634
2006-02-22 11:15:45 51°24.708 2°40.693 -999 3.098565 32.667611 -1.084634
2006-02-22 11:16:45 51°24.811 2°40.923 -999 3.103944 32.706241 -1.084634
2006-02-22 11:17:45 51°24.923 2°41.163 -999 3.103323 32.700932 -1.084634
2006-02-22 11:18:45 51°25.03 2°41.402 -999 3.102289 32.693691 -1.084634
2006-02-22 11:19:45 51°25.124 2°41.657 -999 3.100737 32.678488 -1.084634
2006-02-22 11:20:45 51°25.178 2°41.943 -999 3.096703 32.646853 -1.084634
2006-02-22 11:21:45 51°25.181 2°42.243 -999 3.097323 32.649276 -1.084634
2006-02-22 11:22:44 51°25.073 2°42.491 -999 3.096289 32.641063 -1.084634
2006-02-22 11:23:44 51°24.924 2°42.707 -999 3.094116 32.62439 -1.084634
2006-02-22 11:24:44 51°24.774 2°42.918 -999 3.090703 32.595153 -1.084634
2006-02-22 11:25:44 51°24.621 2°43.126 -999 3.08853 32.583278 -1.084634
2006-02-22 11:26:45 51°24.471 2°43.345 -999 3.086048 32.560074 -1.084634
2006-02-22 11:27:44 51°24.326 2°43.559 -999 3.084393 32.549412 -1.084634
2006-02-22 11:28:44 51°24.177 2°43.773 -999 3.078393 32.498589 -1.050924
2006-02-22 11:29:44 51°24.031 2°43.992 -999 3.072083 32.444102 -1.017215
2006-02-22 11:30:45 51°23.878 2°44.209 -999 3.069497 32.42541 -1.017215
2006-02-22 11:31:44 51°23.725 2°44.413 -999 3.06929 32.424913 -1.017215
2006-02-22 11:32:45 51°23.555 2°44.607 -999 3.068462 32.420043 -1.017215
2006-02-22 11:33:44 51°23.378 2°44.764 -999 3.0636 32.382413 -1.017215
2006-02-22 11:34:44 51°23.197 2°44.922 -999 3.057291 32.328776 -1.017215
2006-02-22 11:35:45 51°23.013 2°45.087 -999 3.048291 32.242682 -1.050924
2006-02-22 11:36:44 51°22.832 2°45.243 -999 3.046533 32.227854 -1.050924
2006-02-22 11:37:45 51°22.644 2°45.398 -999 3.045809 32.223209 -1.017215
2006-02-22 11:38:44 51°22.46 2°45.547 -999 3.043843 32.203087 -1.017215
2006-02-22 11:39:45 51°22.269 2°45.706 -999 3.042706 32.190733 -1.017215
2006-02-22 11:40:44 51°22.088 2°45.857 -999 3.041051 32.173284 -1.017215
2006-02-22 11:41:44 51°21.903 2°46.016 -999 3.037741 32.13934 -1.017215
2006-02-22 11:42:44 51°21.723 2°46.184 -999 3.025121 31.987981 -0.983506
2006-02-22 11:43:44 51°21.541 2°46.339 -999 3.016432 31.879825 -0.949796
2006-02-22 11:44:45 51°21.357 2°46.497 -999 3.01395 31.843271 -0.983506
2006-02-22 11:45:44 51°21.189 2°46.675 -999 3.013743 31.826693 -0.983506
2006-02-22 11:46:45 51°21.023 2°46.865 -999 3.012708 31.800477 -0.983506
2006-02-22 11:47:44 51°20.861 2°47.05 -999 3.010847 31.774051 -0.983506
2006-02-22 11:48:45 51°20.702 2°47.256 -999 3.009295 31.750312 -0.949796
2006-02-22 11:49:45 51°20.544 2°47.459 -999 3.010433 31.75323 -0.949796
2006-02-22 11:50:45 51°20.387 2°47.667 -999 3.010226 31.748938 -0.916087
2006-02-22 11:51:45 51°20.229 2°47.877 -999 3.01157 31.754267 -0.916087
2006-02-22 11:52:44 51°20.073 2°48.083 -999 3.010846 31.74583 -0.882377
2006-02-22 11:53:44 51°19.919 2°48.296 -999 3.006502 31.697093 -0.882377
2006-02-22 11:54:44 51°19.791 2°48.484 -999 3.004227 31.663085 -0.882377
2006-02-22 11:55:45 51°19.741 2°48.55 -999 3.005468 31.662546 -0.848668
2006-02-22 11:56:45 51°19.708 2°48.551 -999 3.006916 31.669099 -0.814958
2006-02-22 11:57:44 51°19.683 2°48.53 -999 3.006916 31.673782 -0.781249
2006-02-22 11:58:45 51°19.66 2°48.489 -999 3.00764 31.671906 -0.74754
2006-02-22 11:59:44 51°19.643 2°48.442 -999 3.007019 31.670302 -0.74754
2006-02-22 12:00:45 51°19.624 2°48.391 -999 3.005674 31.663081 -0.74754
2006-02-22 12:01:44 51°19.59 2°48.353 -999 3.005054 31.656793 -0.781249
2006-02-22 12:02:45 51°19.5 2°48.437 -999 3.00402 31.649435 -0.74754
2006-02-22 12:03:44 51°19.381 2°48.63 -999 3.002158 31.632441 -0.646411
2006-02-22 12:04:45 51°19.244 2°48.854 -999 2.999986 31.611831 -0.646411
2006-02-22 12:05:44 51°19.113 2°49.073 -999 3.000193 31.613303 -0.74754
2006-02-22 12:06:45 51°18.976 2°49.296 -999 3.002158 31.626825 -0.74754
2006-02-22 12:07:45 51°18.847 2°49.517 -999 2.998228 31.596035 -0.781249
2006-02-22 12:08:45 51°18.715 2°49.739 -999 2.987885 31.508277 -0.74754
2006-02-22 12:09:45 51°18.582 2°49.963 -999 2.982714 31.462021 -0.71383
2006-02-22 12:10:45 51°18.452 2°50.192 -999 2.973819 31.387246 -0.781249
2006-02-22 12:11:45 51°18.323 2°50.419 -999 2.969579 31.347118 -0.74754
2006-02-22 12:12:44 51°18.195 2°50.644 -999 2.964822 31.303736 -0.814958
2006-02-22 12:13:45 51°18.061 2°50.877 -999 2.962029 31.280465 -0.814958
2006-02-22 12:14:45 51°17.929 2°51.103 -999 2.962236 31.281949 -0.578993
2006-02-22 12:15:45 51°17.795 2°51.328 -999 2.961099 31.272397 -0.410446
2006-02-22 12:16:45 51°17.66 2°51.551 -999 2.960892 31.270913 -0.343027
2006-02-22 12:17:44 51°17.525 2°51.77 -999 2.959651 31.263869 -0.343027
2006-02-22 12:18:45 51°17.386 2°52.003 -999 2.956755 31.231946 -0.275608
2006-02-22 12:19:44 51°17.224 2°52.19 -999 2.953653 31.202248 -0.241899
2006-02-22 12:20:45 51°17.034 2°52.331 -999 2.949309 31.153435 -0.275608
2006-02-22 12:21:45 51°16.842 2°52.466 -999 2.946 31.119463 -0.107061
2006-02-22 12:22:45 51°16.651 2°52.6 -999 2.943621 31.090797 -0.073352
2006-02-22 12:23:45 51°16.459 2°52.735 -999 2.943828 31.092285 -0.14077
2006-02-22 12:24:45 51°16.265 2°52.859 -999 2.92604 30.896884 -0.578993
2006-02-22 12:25:45 51°16.073 2°52.985 -999 2.930177 30.934985 -0.680121
2006-02-22 12:26:45 51°15.88 2°53.106 -999 2.926661 30.89401 -0.74754
2006-02-22 12:27:45 51°15.691 2°53.231 -999 2.916319 30.770794 -0.74754
2006-02-22 12:28:45 51°15.514 2°53.367 -999 2.89905 30.573403 -0.74754
2006-02-22 12:29:44 51°15.429 2°53.505 -999 2.897085 30.547816 -0.71383
2006-02-22 12:30:44 51°15.358 2°53.602 -999 2.896878 30.546318 -0.781249
2006-02-22 12:31:45 51°15.308 2°53.675 -999 2.896982 30.543889 -1.219471
2006-02-22 12:32:45 51°15.271 2°53.732 -999 2.897085 30.544184 -1.219471
2006-02-22 12:33:44 51°15.245 2°53.774 -999 2.897188 30.545387 -1.219471
2006-02-22 12:34:45 51°15.223 2°53.812 -999 2.897292 30.544774 -1.219471
2006-02-22 12:35:44 51°15.199 2°53.861 -999 2.897395 30.543254 -1.219471
2006-02-22 12:36:45 51°15.173 2°53.934 -999 2.897602 30.541122 -1.253181
2006-02-22 12:37:44 51°15.148 2°54.007 -999 2.897809 30.539897 -1.219471
2006-02-22 12:38:45 51°15.121 2°54.056 -999 2.898222 30.540171 -1.219471
2006-02-22 12:39:44 51°15.097 2°54.09 -999 2.898843 30.540128 -1.253181
2006-02-22 12:40:45 51°15.074 2°54.116 -999 2.899877 30.543986 -1.219471
2006-02-22 12:41:45 51°15.054 2°54.142 -999 2.901221 30.546915 -1.253181
2006-02-22 12:42:45 51°15.032 2°54.165 -999 2.902669 30.554669 -1.253181
2006-02-22 12:43:45 51°15.008 2°54.19 -999 2.90422 30.556371 -1.219471
2006-02-22 12:44:45 51°14.985 2°54.211 -999 2.905977 30.56319 -1.219471
2006-02-22 12:45:45 51°14.96 2°54.232 -999 2.907735 30.568195 -1.219471
2006-02-22 12:46:44 51°14.938 2°54.254 -999 2.909493 30.574102 -1.219471
2006-02-22 12:47:45 51°14.916 2°54.276 -999 2.911251 30.578196 -1.219471
2006-02-22 12:48:45 51°14.881 2°54.301 -999 2.913009 30.583193 -1.219471
2006-02-22 12:49:45 51°14.797 2°54.4 -999 2.914663 30.586085 -1.219471
2006-02-22 12:50:45 51°14.668 2°54.547 -999 2.916318 30.595302 -1.219471
2006-02-22 12:51:44 51°14.533 2°54.718 -999 2.917869 30.605126 -1.219471
2006-02-22 12:52:44 51°14.418 2°54.925 -999 2.919316 30.60652 -1.219471
2006-02-22 12:53:45 51°14.318 2°55.151 -999 2.920867 30.603692 -1.219471
2006-02-22 12:54:45 51°14.219 2°55.317 -999 2.922315 30.606893 -1.219471
2006-02-22 12:55:45 51°14.122 2°55.404 -999 2.923763 30.612799 -1.219471
2006-02-22 12:56:45 51°14.026 2°55.478 -999 2.925314 30.617191 -1.219471
2006-02-22 12:57:45 51°13.936 2°55.542 -999 2.926865 30.623385 -1.219471
2006-02-22 12:58:45 51°13.853 2°55.605 -999 2.928312 30.626579 -1.219471
2006-02-22 12:59:45 51°13.779 2°55.687 -999 2.92976 30.631573 -1.219471
2006-02-22 13:00:45 51°13.716 2°55.789 -999 2.931311 30.635957 -1.219471
2006-02-22 13:01:45 51°13.664 2°55.898 -999 2.932655 30.641556 -1.219471
2006-02-22 13:02:45 51°13.629 2°56.001 -999 2.934103 30.647444 -1.219471
2006-02-22 13:03:44 51°13.608 2°56.067 -999 2.935447 30.650337 -1.219471
2006-02-22 13:04:44 51°13.602 2°56.084 -999 2.936688 30.652037 -1.219471
2006-02-22 13:05:49 51°13.598 2°56.093 -999 2.938033 30.657628 -1.219471
2006-02-22 13:06:49 51°13.597 2°56.095 -999 2.939274 30.660226 -1.219471
2006-02-22 13:07:49 51°13.598 2°56.095 -999 2.940618 30.662215 -1.219471
2006-02-22 13:08:49 51°13.598 2°56.094 -999 2.941859 30.664812 -1.219471
2006-02-22 13:09:49 51°13.598 2°56.095 -999 2.9431 30.668306 -1.219471
2006-02-22 13:10:49 51°13.598 2°56.094 -999 2.94434 30.670901 -1.219471
2006-02-22 13:11:49 51°13.598 2°56.094 -999 2.945685 30.674684 -1.219471
2006-02-22 13:12:49 51°13.598 2°56.094 -999 2.946822 30.67519 -1.185762
2006-02-22 13:13:49 51°13.598 2°56.094 -999 2.948167 30.677177 -1.219471
2006-02-22 13:14:49 51°13.598 2°56.094 -999 2.949408 30.679769 -1.219471